createdAt,value
2022-08-22T00:02:46.809Z,100177.61
2022-08-22T00:02:59.457Z,100146.16
2022-08-22T00:03:01.687Z,100177.84
2022-08-22T00:05:27.692Z,100142.17
2022-08-22T00:08:03.815Z,100141.52
2022-08-22T00:10:47.696Z,100140.10
2022-08-22T00:13:22.080Z,100139.77
2022-08-22T00:15:57.258Z,100138.52
2022-08-22T00:18:31.348Z,100136.17
2022-08-22T00:21:08.449Z,100139.30
2022-08-22T00:23:41.976Z,100143.84
2022-08-22T00:26:22.597Z,100141.19
2022-08-22T00:28:58.712Z,100144.05
2022-08-22T00:31:32.894Z,100146.30
2022-08-22T00:34:06.147Z,100148.38
2022-08-22T00:36:40.043Z,100149.09
2022-08-22T00:39:14.571Z,100149.67
2022-08-22T00:42:01.565Z,100145.64
2022-08-22T00:45:02.837Z,100145.55
2022-08-22T00:48:14.616Z,100147.58
2022-08-22T00:51:10.032Z,100141.23
2022-08-22T00:53:49.326Z,100137.88
2022-08-22T00:56:51.944Z,100138.95
2022-08-22T00:59:51.899Z,100133.64
2022-08-22T01:02:32.682Z,100134.73
2022-08-22T01:05:18.742Z,100133.05
2022-08-22T01:08:03.226Z,100134.55
2022-08-22T01:10:49.684Z,100126.28
2022-08-22T01:13:39.279Z,100126.30
2022-08-22T01:16:27.114Z,100129.94
2022-08-22T01:19:29.076Z,100123.14
2022-08-22T01:22:30.346Z,100121.94
2022-08-22T01:25:48.739Z,100122.16
2022-08-22T01:28:49.850Z,100123.70
2022-08-22T01:31:49.925Z,100126.30
2022-08-22T01:34:51.389Z,100127.72
2022-08-22T01:37:43.677Z,100127.74
2022-08-22T01:40:54.074Z,100129.01
2022-08-22T01:43:59.282Z,100125.52
2022-08-22T01:46:36.602Z,100123.11
2022-08-22T01:49:14.599Z,100123.97
2022-08-22T01:51:50.746Z,100128.33
2022-08-22T01:54:30.785Z,100128.53
2022-08-22T01:57:02.654Z,100127.89
2022-08-22T01:59:38.606Z,100130.70
2022-08-22T02:02:40.429Z,100131.92
2022-08-22T02:05:19.055Z,100130.18
2022-08-22T02:07:55.274Z,100131.41
2022-08-22T02:10:41.956Z,100134.00
2022-08-22T02:13:29.903Z,100136.48
2022-08-22T02:16:09.328Z,100135.42
2022-08-22T02:18:54.049Z,100139.98
2022-08-22T02:21:32.895Z,100141.33
2022-08-22T02:24:14.051Z,100140.95
2022-08-22T02:26:46.744Z,100142.33
2022-08-22T02:29:18.662Z,100144.46
2022-08-22T02:31:55.980Z,100141.09
2022-08-22T02:34:38.615Z,100142.37
2022-08-22T02:37:12.920Z,100139.27
2022-08-22T02:39:48.064Z,100141.10
2022-08-22T02:42:24.271Z,100143.42
2022-08-22T02:45:00.660Z,100143.10
2022-08-22T02:47:39.605Z,100142.16
2022-08-22T02:50:17.566Z,100142.63
2022-08-22T02:52:55.749Z,100139.52
2022-08-22T02:55:36.542Z,100141.98
2022-08-22T02:58:08.539Z,100145.42
2022-08-22T03:00:46.974Z,100143.13
2022-08-22T03:03:22.339Z,100148.52
2022-08-22T03:06:00.551Z,100147.75
2022-08-22T03:08:31.455Z,100149.79
2022-08-22T03:11:09.540Z,100149.90
2022-08-22T03:13:55.851Z,100153.27
2022-08-22T03:16:33.318Z,100146.77
2022-08-22T03:19:13.116Z,100153.64
2022-08-22T03:21:54.368Z,100151.06
2022-08-22T03:24:27.462Z,100152.85
2022-08-22T03:27:05.001Z,100152.72
2022-08-22T03:29:36.455Z,100159.64
2022-08-22T03:32:13.532Z,100157.36
2022-08-22T03:34:59.384Z,100161.14
2022-08-22T03:37:39.890Z,100164.72
2022-08-22T03:40:29.731Z,100163.17
2022-08-22T03:43:18.024Z,100160.78
2022-08-22T03:46:04.753Z,100157.80
2022-08-22T03:49:17.051Z,100160.64
2022-08-22T03:52:04.251Z,100161.86
2022-08-22T03:55:07.282Z,100162.27
2022-08-22T03:58:00.395Z,100164.83
2022-08-22T04:01:05.598Z,100168.08
2022-08-22T04:04:31.127Z,100171.59
2022-08-22T04:07:28.346Z,100171.09
2022-08-22T04:10:33.033Z,100171.28
2022-08-22T04:13:33.086Z,100171.92
2022-08-22T04:16:48.516Z,100167.23
2022-08-22T04:19:30.376Z,100167.86
2022-08-22T04:22:33.502Z,100167.07
2022-08-22T04:25:08.251Z,100167.40
2022-08-22T04:27:43.554Z,100164.75
2022-08-22T04:30:26.151Z,100166.13
2022-08-22T04:33:00.859Z,100172.89
2022-08-22T04:35:33.962Z,100169.33
2022-08-22T04:38:09.823Z,100174.88
2022-08-22T04:40:44.343Z,100173.98
2022-08-22T04:43:19.104Z,100173.95
2022-08-22T04:45:51.874Z,100171.13
2022-08-22T04:48:29.599Z,100170.05
2022-08-22T04:51:05.879Z,100171.66
2022-08-22T04:53:53.833Z,100170.05
2022-08-22T04:56:27.032Z,100173.20
2022-08-22T04:58:59.106Z,100171.10
2022-08-22T05:01:41.935Z,100170.55
2022-08-22T05:04:14.289Z,100171.10
2022-08-22T05:06:47.263Z,100173.55
2022-08-22T05:09:18.293Z,100172.46
2022-08-22T05:11:51.081Z,100169.83
2022-08-22T05:14:25.349Z,100168.77
2022-08-22T05:16:57.477Z,100173.50
2022-08-22T05:19:32.127Z,100172.84
2022-08-22T05:22:03.190Z,100174.10
2022-08-22T05:24:37.137Z,100173.06
2022-08-22T05:27:12.150Z,100175.23
2022-08-22T05:29:44.723Z,100174.88
2022-08-22T05:32:19.348Z,100177.89
2022-08-22T05:34:50.056Z,100179.33
2022-08-22T05:37:24.125Z,100181.56
2022-08-22T05:39:56.327Z,100185.97
2022-08-22T05:42:29.658Z,100189.30
2022-08-22T05:44:57.780Z,100193.94
2022-08-22T05:47:34.203Z,100194.55
2022-08-22T05:50:07.765Z,100197.63
2022-08-22T05:52:51.782Z,100199.47
2022-08-22T05:55:28.512Z,100201.79
2022-08-22T05:58:23.978Z,100202.56
2022-08-22T06:00:59.627Z,100197.16
2022-08-22T06:03:33.322Z,100198.04
2022-08-22T06:06:14.657Z,100202.48
2022-08-22T06:08:46.565Z,100208.74
2022-08-22T06:11:20.452Z,100203.64
2022-08-22T06:13:56.342Z,100208.02
2022-08-22T06:16:40.592Z,100208.83
2022-08-22T06:19:19.666Z,100209.50
2022-08-22T06:21:50.321Z,100210.45
2022-08-22T06:24:24.246Z,100211.82
2022-08-22T06:26:56.723Z,100209.89
2022-08-22T06:29:32.954Z,100207.73
2022-08-22T06:32:03.392Z,100210.08
2022-08-22T06:34:35.406Z,100214.34
2022-08-22T06:37:06.954Z,100207.42
2022-08-22T06:39:37.999Z,100212.14
2022-08-22T06:42:13.255Z,100214.27
2022-08-22T06:44:46.806Z,100217.16
2022-08-22T06:47:19.024Z,100219.92
2022-08-22T06:49:46.996Z,100219.67
2022-08-22T06:52:21.853Z,100221.72
2022-08-22T06:54:55.640Z,100221.63
2022-08-22T06:57:27.238Z,100223.77
2022-08-22T06:59:56.832Z,100221.49
2022-08-22T07:02:30.341Z,100219.58
2022-08-22T07:04:58.725Z,100219.39
2022-08-22T07:07:27.599Z,100220.41
2022-08-22T07:09:56.968Z,100220.66
2022-08-22T07:12:30.354Z,100220.30
2022-08-22T07:15:11.767Z,100217.45
2022-08-22T07:17:49.251Z,100218.40
2022-08-22T07:20:24.714Z,100211.96
2022-08-22T07:22:56.567Z,100212.51
2022-08-22T07:25:24.713Z,100213.17
2022-08-22T07:28:16.079Z,100213.70
2022-08-22T07:30:54.886Z,100209.61
2022-08-22T07:33:39.129Z,100209.04
2022-08-22T07:36:22.645Z,100211.70
2022-08-22T07:39:11.178Z,100208.28
2022-08-22T07:41:50.881Z,100214.40
2022-08-22T07:44:22.771Z,100211.72
2022-08-22T07:46:56.878Z,100216.38
2022-08-22T07:49:29.612Z,100210.91
2022-08-22T07:52:00.649Z,100210.06
2022-08-22T07:54:36.261Z,100203.98
2022-08-22T07:57:10.087Z,100207.29
2022-08-22T07:59:46.545Z,100211.02
2022-08-22T08:02:17.629Z,100214.98
2022-08-22T08:04:47.722Z,100214.36
2022-08-22T08:07:20.505Z,100213.58
2022-08-22T08:09:54.003Z,100213.34
2022-08-22T08:12:29.525Z,100214.66
2022-08-22T08:14:58.330Z,100213.30
2022-08-22T08:17:32.206Z,100214.53
2022-08-22T08:20:03.407Z,100217.41
2022-08-22T08:22:32.881Z,100216.42
2022-08-22T08:25:02.191Z,100215.11
2022-08-22T08:27:53.200Z,100218.94
2022-08-22T08:30:24.078Z,100221.03
2022-08-22T08:32:57.500Z,100222.88
2022-08-22T08:36:03.371Z,100223.13
2022-08-22T08:38:38.783Z,100221.14
2022-08-22T08:41:31.661Z,100220.55
2022-08-22T08:44:07.521Z,100219.73
2022-08-22T08:46:56.690Z,100220.91
2022-08-22T08:50:00.348Z,100215.42
2022-08-22T08:52:53.057Z,100215.91
2022-08-22T08:55:37.169Z,100212.39
2022-08-22T08:58:25.234Z,100211.98
2022-08-22T09:01:01.996Z,100210.43
2022-08-22T09:03:56.434Z,100208.64
2022-08-22T09:06:50.785Z,100210.91
2022-08-22T09:09:39.007Z,100211.64
2022-08-22T09:12:20.320Z,100211.10
2022-08-22T09:15:28.470Z,100205.60
2022-08-22T09:18:33.078Z,100208.73
2022-08-22T09:21:30.628Z,100210.90
2022-08-22T09:24:46.707Z,100210.29
2022-08-22T09:27:22.838Z,100206.89
2022-08-22T09:29:59.706Z,100204.05
2022-08-22T09:32:46.781Z,100202.77
2022-08-22T09:35:25.291Z,100201.89
2022-08-22T09:38:14.959Z,100202.58
2022-08-22T09:40:48.356Z,100204.14
2022-08-22T09:43:22.756Z,100201.64
2022-08-22T09:46:03.135Z,100201.84
2022-08-22T09:48:45.643Z,100205.48
2022-08-22T09:51:31.823Z,100206.98
2022-08-22T09:54:24.249Z,100210.52
2022-08-22T09:57:09.642Z,100208.94
2022-08-22T09:59:55.531Z,100205.40
2022-08-22T10:02:33.955Z,100205.52
2022-08-22T10:05:41.127Z,100204.46
2022-08-22T10:08:14.719Z,100204.39
2022-08-22T10:11:20.172Z,100204.73
2022-08-22T10:14:00.739Z,100205.22
2022-08-22T10:16:53.794Z,100202.34
2022-08-22T10:19:28.385Z,100200.20
2022-08-22T10:22:19.221Z,100202.98
2022-08-22T10:24:55.440Z,100198.59
2022-08-22T10:27:42.259Z,100195.20
2022-08-22T10:30:16.396Z,100199.77
2022-08-22T10:32:51.952Z,100206.33
2022-08-22T10:35:26.169Z,100209.22
2022-08-22T10:37:57.857Z,100206.82
2022-08-22T10:40:32.605Z,100210.30
2022-08-22T10:43:09.293Z,100205.08
2022-08-22T10:45:39.140Z,100209.36
2022-08-22T10:48:35.094Z,100205.55
2022-08-22T10:51:16.643Z,100203.50
2022-08-22T10:54:06.836Z,100199.76
2022-08-22T10:56:43.865Z,100200.38
2022-08-22T10:59:27.036Z,100203.04
2022-08-22T11:02:09.051Z,100204.35
2022-08-22T11:04:56.061Z,100202.32
2022-08-22T11:07:48.633Z,100201.92
2022-08-22T11:10:27.323Z,100205.45
2022-08-22T11:13:11.448Z,100200.61
2022-08-22T11:16:04.357Z,100199.70
2022-08-22T11:19:15.144Z,100199.80
2022-08-22T11:22:01.537Z,100197.13
2022-08-22T11:25:35.663Z,100202.19
2022-08-22T11:28:26.948Z,100201.05
2022-08-22T11:31:07.594Z,100207.62
2022-08-22T11:33:46.942Z,100211.21
2022-08-22T11:36:36.415Z,100214.95
2022-08-22T11:39:18.267Z,100218.22
2022-08-22T11:41:58.443Z,100217.10
2022-08-22T11:44:31.021Z,100212.82
2022-08-22T11:47:02.170Z,100212.38
2022-08-22T11:49:52.664Z,100208.94
2022-08-22T11:52:38.021Z,100210.03
2022-08-22T11:55:20.128Z,100211.23
2022-08-22T11:57:51.296Z,100214.05
2022-08-22T12:00:29.506Z,100210.84
2022-08-22T12:03:23.389Z,100213.29
2022-08-22T12:05:55.554Z,100209.35
2022-08-22T12:09:02.545Z,100215.98
2022-08-22T12:11:40.734Z,100214.66
2022-08-22T12:14:19.751Z,100219.72
2022-08-22T12:17:02.026Z,100218.39
2022-08-22T12:19:48.893Z,100216.98
2022-08-22T12:22:49.876Z,100217.13
2022-08-22T12:25:31.296Z,100210.71
2022-08-22T12:28:15.849Z,100206.91
2022-08-22T12:30:55.878Z,100205.97
2022-08-22T12:33:42.108Z,100204.85
2022-08-22T12:36:31.292Z,100204.52
2022-08-22T12:39:25.626Z,100210.92
2022-08-22T12:42:17.340Z,100210.92
2022-08-22T12:45:00.110Z,100207.39
2022-08-22T12:47:44.383Z,100202.22
2022-08-22T12:50:28.152Z,100206.59
2022-08-22T12:53:20.103Z,100200.86
2022-08-22T12:56:06.033Z,100203.64
2022-08-22T12:59:03.500Z,100202.55
2022-08-22T13:01:40.193Z,100200.02
2022-08-22T13:04:29.744Z,100199.11
2022-08-22T13:07:08.226Z,100199.95
2022-08-22T13:09:38.450Z,100200.99
2022-08-22T13:12:19.959Z,100200.70
2022-08-22T13:14:53.177Z,100202.17
2022-08-22T13:17:25.109Z,100198.80
2022-08-22T13:20:09.596Z,100200.98
2022-08-22T13:22:45.669Z,100202.85
2022-08-22T13:25:25.597Z,100203.09
2022-08-22T13:27:59.329Z,100203.85
2022-08-22T13:30:31.508Z,100200.38
2022-08-22T13:33:08.940Z,100198.63
2022-08-22T13:35:45.397Z,100198.43
2022-08-22T13:38:26.218Z,100199.38
2022-08-22T13:40:56.694Z,100203.27
2022-08-22T13:43:29.159Z,100201.36
2022-08-22T13:46:01.697Z,100202.77
2022-08-22T13:48:47.316Z,100202.56
2022-08-22T13:51:20.535Z,100202.05
2022-08-22T13:54:01.014Z,100197.64
2022-08-22T13:56:39.172Z,100199.71
2022-08-22T13:59:47.192Z,100195.71
2022-08-22T14:02:18.111Z,100194.64
2022-08-22T14:04:51.172Z,100194.23
2022-08-22T14:07:30.507Z,100190.85
2022-08-22T14:10:03.841Z,100194.39
2022-08-22T14:12:50.225Z,100193.47
2022-08-22T14:15:21.801Z,100192.86
2022-08-22T14:17:54.830Z,100192.39
2022-08-22T14:20:31.991Z,100192.42
2022-08-22T14:23:07.098Z,100189.05
2022-08-22T14:25:37.887Z,100193.48
2022-08-22T14:28:09.751Z,100187.88
2022-08-22T14:30:59.458Z,100188.59
2022-08-22T14:33:34.499Z,100185.80
2022-08-22T14:36:11.201Z,100186.70
2022-08-22T14:38:46.235Z,100187.52
2022-08-22T14:41:28.379Z,100187.30
2022-08-22T14:44:21.712Z,100188.50
2022-08-22T14:46:54.633Z,100187.30
2022-08-22T14:49:47.951Z,100191.30
2022-08-22T14:52:31.958Z,100192.34
2022-08-22T14:55:19.885Z,100190.23
2022-08-22T14:57:54.250Z,100184.45
2022-08-22T15:00:33.109Z,100182.53
2022-08-22T15:03:20.393Z,100183.38
2022-08-22T15:05:52.919Z,100182.93
2022-08-22T15:08:27.674Z,100183.21
2022-08-22T15:11:19.759Z,100186.42
2022-08-22T15:13:56.845Z,100189.37
2022-08-22T15:16:31.877Z,100192.13
2022-08-22T15:19:00.869Z,100189.93
2022-08-22T15:21:31.228Z,100185.45
2022-08-22T15:24:05.808Z,100186.65
2022-08-22T15:26:39.732Z,100186.08
2022-08-22T15:29:18.042Z,100189.24
2022-08-22T15:31:51.029Z,100182.63
2022-08-22T15:34:29.964Z,100178.23
2022-08-22T15:37:28.869Z,100185.11
2022-08-22T15:40:11.944Z,100178.35
2022-08-22T15:42:44.220Z,100176.05
2022-08-22T15:45:34.000Z,100173.02
2022-08-22T15:48:07.499Z,100171.55
2022-08-22T15:50:40.461Z,100176.10
2022-08-22T15:53:19.547Z,100178.69
2022-08-22T15:56:27.533Z,100176.36
2022-08-22T15:59:53.685Z,100177.73
2022-08-22T16:02:35.321Z,100177.88
2022-08-22T16:05:23.420Z,100177.31
2022-08-22T16:08:02.053Z,100183.54
2022-08-22T16:10:34.475Z,100179.47
2022-08-22T16:13:38.146Z,100178.05
2022-08-22T16:16:09.538Z,100173.96
2022-08-22T16:19:14.832Z,100176.07
2022-08-22T16:22:16.219Z,100177.70
2022-08-22T16:25:00.270Z,100178.58
2022-08-22T16:27:29.419Z,100181.42
2022-08-22T16:30:11.326Z,100188.45
2022-08-22T16:32:39.717Z,100189.12
2022-08-22T16:35:07.428Z,100187.27
2022-08-22T16:37:49.294Z,100191.38
2022-08-22T16:40:24.196Z,100184.15
2022-08-22T16:43:11.453Z,100183.66
2022-08-22T16:45:44.652Z,100178.75
2022-08-22T16:48:25.167Z,100178.98
2022-08-22T16:51:04.029Z,100182.91
2022-08-22T16:54:08.770Z,100183.21
2022-08-22T16:57:03.448Z,100183.18
2022-08-22T16:59:57.435Z,100181.81
2022-08-22T17:02:49.589Z,100190.51
2022-08-22T17:05:35.852Z,100195.80
2022-08-22T17:08:20.218Z,100195.27
2022-08-22T17:10:58.222Z,100195.66
2022-08-22T17:13:40.925Z,100197.98
2022-08-22T17:16:25.398Z,100200.30
2022-08-22T17:19:10.149Z,100200.89
2022-08-22T17:21:51.697Z,100203.83
2022-08-22T17:24:36.110Z,100202.49
2022-08-22T17:27:14.913Z,100199.73
2022-08-22T17:29:58.739Z,100201.67
2022-08-22T17:32:34.500Z,100202.56
2022-08-22T17:35:17.213Z,100203.48
2022-08-22T17:38:02.024Z,100202.73
2022-08-22T17:40:41.338Z,100206.98
2022-08-22T17:43:48.951Z,100207.88
2022-08-22T17:46:23.850Z,100205.98
2022-08-22T17:48:57.759Z,100205.65
2022-08-22T17:51:30.146Z,100205.35
2022-08-22T17:54:05.619Z,100203.72
2022-08-22T17:56:41.345Z,100204.45
2022-08-22T17:59:20.830Z,100207.23
2022-08-22T18:01:54.897Z,100207.92
2022-08-22T18:04:32.675Z,100211.52
2022-08-22T18:07:35.256Z,100212.02
2022-08-22T18:10:13.760Z,100214.70
2022-08-22T18:12:48.686Z,100208.50
2022-08-22T18:15:26.281Z,100210.91
2022-08-22T18:17:59.093Z,100220.27
2022-08-22T18:20:34.788Z,100217.80
2022-08-22T18:23:21.504Z,100215.22
2022-08-22T18:26:20.353Z,100211.86
2022-08-22T18:28:57.287Z,100209.64
2022-08-22T18:31:43.947Z,100211.50
2022-08-22T18:34:23.893Z,100211.38
2022-08-22T18:36:58.020Z,100208.90
2022-08-22T18:39:33.325Z,100211.21
2022-08-22T18:42:08.973Z,100212.42
2022-08-22T18:44:39.854Z,100215.27
2022-08-22T18:47:19.085Z,100216.65
2022-08-22T18:49:54.034Z,100218.08
2022-08-22T18:52:39.425Z,100218.60
2022-08-22T18:55:27.207Z,100221.24
2022-08-22T18:58:35.660Z,100220.38
2022-08-22T19:01:21.392Z,100224.89
2022-08-22T19:04:08.150Z,100223.27
2022-08-22T19:06:57.853Z,100222.37
2022-08-22T19:09:46.588Z,100223.46
2022-08-22T19:12:37.646Z,100227.80
2022-08-22T19:15:27.606Z,100222.42
2022-08-22T19:18:22.542Z,100219.72
2022-08-22T19:21:32.977Z,100213.10
2022-08-22T19:24:05.401Z,100212.39
2022-08-22T19:26:50.728Z,100207.70
2022-08-22T19:29:55.897Z,100206.20
2022-08-22T19:32:59.580Z,100207.81
2022-08-22T19:35:40.057Z,100209.11
2022-08-22T19:38:14.450Z,100213.66
2022-08-22T19:40:53.951Z,100215.83
2022-08-22T19:43:36.841Z,100217.31
2022-08-22T19:46:07.804Z,100216.85
2022-08-22T19:48:49.438Z,100211.91
2022-08-22T19:51:29.007Z,100210.73
2022-08-22T19:54:16.871Z,100215.31
2022-08-22T19:57:06.793Z,100217.27
2022-08-22T19:59:50.876Z,100215.20
2022-08-22T20:02:32.834Z,100209.34
2022-08-22T20:05:14.049Z,100204.23
2022-08-22T20:08:08.532Z,100209.25
2022-08-22T20:10:53.444Z,100213.14
2022-08-22T20:13:23.881Z,100212.66
2022-08-22T20:16:08.862Z,100214.39
2022-08-22T20:19:14.161Z,100213.76
2022-08-22T20:21:53.288Z,100204.38
2022-08-22T20:24:30.341Z,100204.32
2022-08-22T20:27:13.896Z,100200.38
2022-08-22T20:29:50.869Z,100201.16
2022-08-22T20:32:27.019Z,100199.16
2022-08-22T20:35:05.483Z,100196.41
2022-08-22T20:38:05.131Z,100191.77
2022-08-22T20:40:56.699Z,100192.41
2022-08-22T20:43:31.880Z,100191.98
2022-08-22T20:46:24.226Z,100185.73
2022-08-22T20:48:56.622Z,100178.33
2022-08-22T20:51:29.402Z,100177.27
2022-08-22T20:53:59.595Z,100175.75
2022-08-22T20:56:36.271Z,100173.76
2022-08-22T20:59:21.264Z,100174.38
2022-08-22T21:01:54.431Z,100175.39
2022-08-22T21:04:31.707Z,100173.93
2022-08-22T21:07:01.085Z,100175.44
2022-08-22T21:09:46.989Z,100178.34
2022-08-22T21:12:15.314Z,100177.86
2022-08-22T21:14:46.591Z,100173.48
2022-08-22T21:17:20.555Z,100164.68
2022-08-22T21:19:51.151Z,100164.05
2022-08-22T21:22:29.111Z,100164.11
2022-08-22T21:24:58.843Z,100159.91
2022-08-22T21:27:30.399Z,100155.64
2022-08-22T21:29:59.800Z,100156.13
2022-08-22T21:32:34.149Z,100156.52
2022-08-22T21:35:04.746Z,100161.91
2022-08-22T21:37:38.341Z,100160.21
2022-08-22T21:40:16.151Z,100160.52
2022-08-22T21:42:58.144Z,100159.52
2022-08-22T21:45:30.556Z,100162.15
2022-08-22T21:47:59.023Z,100158.17
2022-08-22T21:50:37.301Z,100149.70
2022-08-22T21:53:14.182Z,100152.70
2022-08-22T21:55:44.776Z,100149.05
2022-08-22T21:58:36.838Z,100145.36
2022-08-22T22:01:27.560Z,100145.02
2022-08-22T22:03:57.632Z,100143.63
2022-08-22T22:06:26.856Z,100144.05
2022-08-22T22:08:54.850Z,100149.31
2022-08-22T22:11:22.476Z,100150.49
2022-08-22T22:13:50.261Z,100150.84
2022-08-22T22:16:23.594Z,100154.52
2022-08-22T22:18:51.249Z,100154.57
2022-08-22T22:21:19.113Z,100157.23
2022-08-22T22:23:46.743Z,100152.40
2022-08-22T22:26:14.744Z,100149.20
2022-08-22T22:28:46.729Z,100152.79
2022-08-22T22:31:15.632Z,100144.45
2022-08-22T22:33:43.632Z,100141.79
2022-08-22T22:36:15.769Z,100140.69
2022-08-22T22:38:43.958Z,100142.09
2022-08-22T22:41:12.245Z,100139.33
2022-08-22T22:43:39.893Z,100139.69
2022-08-22T22:46:08.375Z,100141.63
2022-08-22T22:48:36.079Z,100142.50
2022-08-22T22:51:08.625Z,100146.08
2022-08-22T22:53:40.484Z,100147.99
2022-08-22T22:56:13.960Z,100150.33
2022-08-22T22:58:44.127Z,100145.17
2022-08-22T23:01:14.592Z,100143.34
2022-08-22T23:03:43.112Z,100141.16
2022-08-22T23:06:12.917Z,100140.52
2022-08-22T23:08:40.631Z,100136.58
2022-08-22T23:11:12.091Z,100131.23
2022-08-22T23:13:41.452Z,100129.19
2022-08-22T23:16:13.955Z,100129.92
2022-08-22T23:18:42.972Z,100130.98
2022-08-22T23:21:12.277Z,100131.88
2022-08-22T23:23:40.173Z,100130.83
2022-08-22T23:26:08.157Z,100126.58
2022-08-22T23:28:35.980Z,100118.59
2022-08-22T23:31:13.174Z,100119.51
2022-08-22T23:33:41.447Z,100118.05
2022-08-22T23:36:14.935Z,100113.85
2022-08-22T23:38:43.175Z,100110.48
2022-08-22T23:41:12.538Z,100109.31
2022-08-22T23:43:42.548Z,100113.33
2022-08-22T23:46:10.479Z,100113.52
2022-08-22T23:48:38.094Z,100113.31
2022-08-22T23:51:06.419Z,100111.07
2022-08-22T23:53:34.584Z,100111.75
2022-08-22T23:56:10.591Z,100110.89
2022-08-22T23:58:49.519Z,100111.80
